sensor_id;sensor_type;location;lat;lon;timestamp;temperature;humidity
9410;DHT22;4744;52.576;13.568;2024-03-25T00:00:28;4.50;99.90
9410;DHT22;4744;52.576;13.568;2024-03-25T00:02:55;4.50;99.90
9410;DHT22;4744;52.576;13.568;2024-03-25T00:05:23;4.50;99.90
9410;DHT22;4744;52.576;13.568;2024-03-25T00:07:51;4.50;99.90
9410;DHT22;4744;52.576;13.568;2024-03-25T00:10:19;4.50;99.90
9410;DHT22;4744;52.576;13.568;2024-03-25T00:12:46;4.50;99.90
9410;DHT22;4744;52.576;13.568;2024-03-25T00:15:18;4.50;99.90
9410;DHT22;4744;52.576;13.568;2024-03-25T00:17:45;4.50;99.90
9410;DHT22;4744;52.576;13.568;2024-03-25T00:20:12;4.50;99.90
9410;DHT22;4744;52.576;13.568;2024-03-25T00:22:39;4.50;99.90
9410;DHT22;4744;52.576;13.568;2024-03-25T00:25:07;4.50;99.90
9410;DHT22;4744;52.576;13.568;2024-03-25T00:27:33;4.50;99.90
9410;DHT22;4744;52.576;13.568;2024-03-25T00:30:00;4.50;99.90
9410;DHT22;4744;52.576;13.568;2024-03-25T00:32:26;4.50;99.90
9410;DHT22;4744;52.576;13.568;2024-03-25T00:34:53;4.50;99.90
9410;DHT22;4744;52.576;13.568;2024-03-25T00:37:19;4.50;99.90
9410;DHT22;4744;52.576;13.568;2024-03-25T00:39:47;4.50;99.90
9410;DHT22;4744;52.576;13.568;2024-03-25T00:42:13;4.50;99.90
9410;DHT22;4744;52.576;13.568;2024-03-25T00:44:40;4.50;99.90
9410;DHT22;4744;52.576;13.568;2024-03-25T00:47:06;4.50;99.90
9410;DHT22;4744;52.576;13.568;2024-03-25T00:49:33;4.50;99.90
9410;DHT22;4744;52.576;13.568;2024-03-25T00:52:00;4.50;99.90
9410;DHT22;4744;52.576;13.568;2024-03-25T00:54:27;4.50;99.90
9410;DHT22;4744;52.576;13.568;2024-03-25T00:56:55;4.40;99.90
9410;DHT22;4744;52.576;13.568;2024-03-25T00:59:22;4.40;99.90
9410;DHT22;4744;52.576;13.568;2024-03-25T01:01:48;4.40;99.90
9410;DHT22;4744;52.576;13.568;2024-03-25T01:04:15;4.40;99.90
9410;DHT22;4744;52.576;13.568;2024-03-25T01:06:41;4.50;99.90
9410;DHT22;4744;52.576;13.568;2024-03-25T01:09:08;4.50;99.90
9410;DHT22;4744;52.576;13.568;2024-03-25T01:11:35;4.50;99.90
9410;DHT22;4744;52.576;13.568;2024-03-25T01:14:03;4.50;99.90
9410;DHT22;4744;52.576;13.568;2024-03-25T01:16:29;4.40;99.90
9410;DHT22;4744;52.576;13.568;2024-03-25T01:18:56;4.40;99.90
9410;DHT22;4744;52.576;13.568;2024-03-25T01:21:22;4.40;99.90
9410;DHT22;4744;52.576;13.568;2024-03-25T01:23:50;4.40;99.90
9410;DHT22;4744;52.576;13.568;2024-03-25T01:26:16;4.50;99.90
9410;DHT22;4744;52.576;13.568;2024-03-25T01:28:43;4.40;99.90
9410;DHT22;4744;52.576;13.568;2024-03-25T01:31:10;4.50;99.90
9410;DHT22;4744;52.576;13.568;2024-03-25T01:33:37;4.50;99.90
9410;DHT22;4744;52.576;13.568;2024-03-25T01:36:03;4.40;99.90
9410;DHT22;4744;52.576;13.568;2024-03-25T01:38:31;4.40;99.90
9410;DHT22;4744;52.576;13.568;2024-03-25T01:41:07;4.50;99.90
9410;DHT22;4744;52.576;13.568;2024-03-25T01:43:35;4.40;99.90
9410;DHT22;4744;52.576;13.568;2024-03-25T01:46:01;4.50;99.90
9410;DHT22;4744;52.576;13.568;2024-03-25T01:48:29;4.50;99.90
9410;DHT22;4744;52.576;13.568;2024-03-25T01:50:55;4.50;99.90
9410;DHT22;4744;52.576;13.568;2024-03-25T01:53:23;4.50;99.90
9410;DHT22;4744;52.576;13.568;2024-03-25T01:55:49;4.50;99.90
9410;DHT22;4744;52.576;13.568;2024-03-25T01:58:19;4.50;99.90
9410;DHT22;4744;52.576;13.568;2024-03-25T02:00:45;4.50;99.90
9410;DHT22;4744;52.576;13.568;2024-03-25T02:03:12;4.50;99.90
9410;DHT22;4744;52.576;13.568;2024-03-25T02:05:40;4.50;99.90
9410;DHT22;4744;52.576;13.568;2024-03-25T02:08:07;4.50;99.90
9410;DHT22;4744;52.576;13.568;2024-03-25T02:10:35;4.50;99.90
9410;DHT22;4744;52.576;13.568;2024-03-25T02:13:04;4.50;99.90
9410;DHT22;4744;52.576;13.568;2024-03-25T02:15:32;4.50;99.90
9410;DHT22;4744;52.576;13.568;2024-03-25T02:17:59;4.50;99.90
9410;DHT22;4744;52.576;13.568;2024-03-25T02:20:25;4.50;99.90
9410;DHT22;4744;52.576;13.568;2024-03-25T02:22:53;4.50;99.90
9410;DHT22;4744;52.576;13.568;2024-03-25T02:25:21;4.50;99.90
9410;DHT22;4744;52.576;13.568;2024-03-25T02:27:50;4.50;99.90
9410;DHT22;4744;52.576;13.568;2024-03-25T02:30:16;4.50;99.90
9410;DHT22;4744;52.576;13.568;2024-03-25T02:32:43;4.50;99.90
9410;DHT22;4744;52.576;13.568;2024-03-25T02:35:12;4.50;99.90
9410;DHT22;4744;52.576;13.568;2024-03-25T02:37:41;4.50;99.90
9410;DHT22;4744;52.576;13.568;2024-03-25T02:40:08;4.50;99.90
9410;DHT22;4744;52.576;13.568;2024-03-25T02:42:37;4.50;99.90
9410;DHT22;4744;52.576;13.568;2024-03-25T02:45:07;4.40;99.90
9410;DHT22;4744;52.576;13.568;2024-03-25T02:47:34;4.40;99.90
9410;DHT22;4744;52.576;13.568;2024-03-25T02:50:00;4.40;99.90
9410;DHT22;4744;52.576;13.568;2024-03-25T02:52:27;4.30;99.90
9410;DHT22;4744;52.576;13.568;2024-03-25T02:54:53;4.30;99.90
9410;DHT22;4744;52.576;13.568;2024-03-25T02:57:21;4.30;99.90
9410;DHT22;4744;52.576;13.568;2024-03-25T02:59:47;4.20;99.90
9410;DHT22;4744;52.576;13.568;2024-03-25T03:02:15;4.20;99.90
9410;DHT22;4744;52.576;13.568;2024-03-25T03:04:41;4.20;99.90
9410;DHT22;4744;52.576;13.568;2024-03-25T03:07:08;4.20;99.90
9410;DHT22;4744;52.576;13.568;2024-03-25T03:09:34;4.20;99.90
9410;DHT22;4744;52.576;13.568;2024-03-25T03:12:01;4.10;99.90
9410;DHT22;4744;52.576;13.568;2024-03-25T03:14:27;4.10;99.90
9410;DHT22;4744;52.576;13.568;2024-03-25T03:16:54;4.10;99.90
9410;DHT22;4744;52.576;13.568;2024-03-25T03:19:21;4.10;99.90
9410;DHT22;4744;52.576;13.568;2024-03-25T03:21:48;4.10;99.90
9410;DHT22;4744;52.576;13.568;2024-03-25T03:24:14;4.10;99.90
9410;DHT22;4744;52.576;13.568;2024-03-25T03:26:41;4.00;99.90
9410;DHT22;4744;52.576;13.568;2024-03-25T03:29:07;4.00;99.90
9410;DHT22;4744;52.576;13.568;2024-03-25T03:31:34;4.00;99.90
9410;DHT22;4744;52.576;13.568;2024-03-25T03:34:00;4.00;99.90
9410;DHT22;4744;52.576;13.568;2024-03-25T03:36:28;4.10;99.90
9410;DHT22;4744;52.576;13.568;2024-03-25T03:38:54;4.10;99.90
9410;DHT22;4744;52.576;13.568;2024-03-25T03:41:21;4.00;99.90
9410;DHT22;4744;52.576;13.568;2024-03-25T03:43:47;4.00;99.90
9410;DHT22;4744;52.576;13.568;2024-03-25T03:46:14;4.00;99.90
9410;DHT22;4744;52.576;13.568;2024-03-25T03:48:40;4.00;99.90
9410;DHT22;4744;52.576;13.568;2024-03-25T03:51:07;4.10;99.90
9410;DHT22;4744;52.576;13.568;2024-03-25T03:53:35;4.00;99.90
9410;DHT22;4744;52.576;13.568;2024-03-25T03:56:04;4.10;99.90
9410;DHT22;4744;52.576;13.568;2024-03-25T03:58:31;4.00;99.90
9410;DHT22;4744;52.576;13.568;2024-03-25T04:00:58;4.10;99.90
9410;DHT22;4744;52.576;13.568;2024-03-25T04:03:24;4.10;99.90
9410;DHT22;4744;52.576;13.568;2024-03-25T04:05:52;4.10;99.90
9410;DHT22;4744;52.576;13.568;2024-03-25T04:08:18;4.10;99.90
9410;DHT22;4744;52.576;13.568;2024-03-25T04:10:46;4.10;99.90
9410;DHT22;4744;52.576;13.568;2024-03-25T04:13:12;4.20;99.90
9410;DHT22;4744;52.576;13.568;2024-03-25T04:15:40;4.20;99.90
9410;DHT22;4744;52.576;13.568;2024-03-25T04:18:08;4.20;99.90
9410;DHT22;4744;52.576;13.568;2024-03-25T04:20:38;4.20;99.90
9410;DHT22;4744;52.576;13.568;2024-03-25T04:23:04;4.20;99.90
9410;DHT22;4744;52.576;13.568;2024-03-25T04:25:33;4.20;99.90
9410;DHT22;4744;52.576;13.568;2024-03-25T04:28:00;4.20;99.90
9410;DHT22;4744;52.576;13.568;2024-03-25T04:30:27;4.20;99.90
9410;DHT22;4744;52.576;13.568;2024-03-25T04:32:53;4.20;99.90
9410;DHT22;4744;52.576;13.568;2024-03-25T04:35:20;4.20;99.90
9410;DHT22;4744;52.576;13.568;2024-03-25T04:37:46;4.20;99.90
9410;DHT22;4744;52.576;13.568;2024-03-25T04:40:12;4.20;99.90
9410;DHT22;4744;52.576;13.568;2024-03-25T04:42:39;4.20;99.90
9410;DHT22;4744;52.576;13.568;2024-03-25T04:45:07;4.20;99.90
9410;DHT22;4744;52.576;13.568;2024-03-25T04:47:33;4.20;99.90
9410;DHT22;4744;52.576;13.568;2024-03-25T04:49:59;4.20;99.90
9410;DHT22;4744;52.576;13.568;2024-03-25T04:52:25;4.20;99.90
9410;DHT22;4744;52.576;13.568;2024-03-25T04:54:51;4.20;99.90
9410;DHT22;4744;52.576;13.568;2024-03-25T04:57:17;4.20;99.90
9410;DHT22;4744;52.576;13.568;2024-03-25T04:59:43;4.20;99.90
9410;DHT22;4744;52.576;13.568;2024-03-25T05:02:10;4.20;99.90
9410;DHT22;4744;52.576;13.568;2024-03-25T05:04:36;4.20;99.90
9410;DHT22;4744;52.576;13.568;2024-03-25T05:07:02;4.10;99.90
9410;DHT22;4744;52.576;13.568;2024-03-25T05:09:28;4.20;99.90
9410;DHT22;4744;52.576;13.568;2024-03-25T05:11:54;4.20;99.90
9410;DHT22;4744;52.576;13.568;2024-03-25T05:14:20;4.20;99.90
9410;DHT22;4744;52.576;13.568;2024-03-25T05:16:46;4.20;99.90
9410;DHT22;4744;52.576;13.568;2024-03-25T05:19:13;4.20;99.90
9410;DHT22;4744;52.576;13.568;2024-03-25T05:21:39;4.20;99.90
9410;DHT22;4744;52.576;13.568;2024-03-25T05:24:05;4.20;99.90
9410;DHT22;4744;52.576;13.568;2024-03-25T05:26:31;4.20;99.90
9410;DHT22;4744;52.576;13.568;2024-03-25T05:28:57;4.20;99.90
9410;DHT22;4744;52.576;13.568;2024-03-25T05:31:24;4.30;99.90
9410;DHT22;4744;52.576;13.568;2024-03-25T05:33:50;4.30;99.90
9410;DHT22;4744;52.576;13.568;2024-03-25T05:36:17;4.30;99.90
9410;DHT22;4744;52.576;13.568;2024-03-25T05:38:43;4.30;99.90
9410;DHT22;4744;52.576;13.568;2024-03-25T05:41:09;4.30;99.90
9410;DHT22;4744;52.576;13.568;2024-03-25T05:43:35;4.30;99.90
9410;DHT22;4744;52.576;13.568;2024-03-25T05:46:01;4.30;99.90
9410;DHT22;4744;52.576;13.568;2024-03-25T05:48:28;4.30;99.90
9410;DHT22;4744;52.576;13.568;2024-03-25T05:50:59;4.30;99.90
9410;DHT22;4744;52.576;13.568;2024-03-25T05:53:27;4.30;99.90
9410;DHT22;4744;52.576;13.568;2024-03-25T05:55:53;4.40;99.90
9410;DHT22;4744;52.576;13.568;2024-03-25T05:58:19;4.40;99.90
9410;DHT22;4744;52.576;13.568;2024-03-25T06:00:47;4.40;99.90
9410;DHT22;4744;52.576;13.568;2024-03-25T06:03:13;4.30;99.90
9410;DHT22;4744;52.576;13.568;2024-03-25T06:05:39;4.40;99.90
9410;DHT22;4744;52.576;13.568;2024-03-25T06:08:06;4.40;99.90
9410;DHT22;4744;52.576;13.568;2024-03-25T06:10:36;4.40;99.90
9410;DHT22;4744;52.576;13.568;2024-03-25T06:13:03;4.40;99.90
9410;DHT22;4744;52.576;13.568;2024-03-25T06:15:29;4.40;99.90
9410;DHT22;4744;52.576;13.568;2024-03-25T06:17:55;4.40;99.90
9410;DHT22;4744;52.576;13.568;2024-03-25T06:20:21;4.40;99.90
9410;DHT22;4744;52.576;13.568;2024-03-25T06:22:47;4.40;99.90
9410;DHT22;4744;52.576;13.568;2024-03-25T06:25:13;4.40;99.90
9410;DHT22;4744;52.576;13.568;2024-03-25T06:27:40;4.40;99.90
9410;DHT22;4744;52.576;13.568;2024-03-25T06:30:07;4.40;99.90
9410;DHT22;4744;52.576;13.568;2024-03-25T06:32:52;4.40;99.90
9410;DHT22;4744;52.576;13.568;2024-03-25T06:35:36;4.40;99.90
9410;DHT22;4744;52.576;13.568;2024-03-25T06:38:02;4.40;99.90
9410;DHT22;4744;52.576;13.568;2024-03-25T06:40:28;4.40;99.90
9410;DHT22;4744;52.576;13.568;2024-03-25T06:42:56;4.40;99.90
9410;DHT22;4744;52.576;13.568;2024-03-25T06:45:22;4.40;99.90
9410;DHT22;4744;52.576;13.568;2024-03-25T06:47:47;4.40;99.90
9410;DHT22;4744;52.576;13.568;2024-03-25T06:50:14;4.40;99.90
9410;DHT22;4744;52.576;13.568;2024-03-25T06:52:40;4.40;99.90
9410;DHT22;4744;52.576;13.568;2024-03-25T06:55:06;4.40;99.90
9410;DHT22;4744;52.576;13.568;2024-03-25T06:57:32;4.40;99.90
9410;DHT22;4744;52.576;13.568;2024-03-25T07:00:00;4.40;99.90
9410;DHT22;4744;52.576;13.568;2024-03-25T07:02:26;4.40;99.90
9410;DHT22;4744;52.576;13.568;2024-03-25T07:04:52;4.40;99.90
9410;DHT22;4744;52.576;13.568;2024-03-25T07:07:18;4.40;99.90
9410;DHT22;4744;52.576;13.568;2024-03-25T07:09:44;4.40;99.90
9410;DHT22;4744;52.576;13.568;2024-03-25T07:12:10;4.50;99.90
9410;DHT22;4744;52.576;13.568;2024-03-25T07:14:36;4.50;99.90
9410;DHT22;4744;52.576;13.568;2024-03-25T07:17:03;4.50;99.90
9410;DHT22;4744;52.576;13.568;2024-03-25T07:19:29;4.50;99.90
9410;DHT22;4744;52.576;13.568;2024-03-25T07:21:55;4.40;99.90
9410;DHT22;4744;52.576;13.568;2024-03-25T07:24:21;4.40;99.90
9410;DHT22;4744;52.576;13.568;2024-03-25T07:26:47;4.50;99.90
9410;DHT22;4744;52.576;13.568;2024-03-25T07:29:13;4.50;99.90
9410;DHT22;4744;52.576;13.568;2024-03-25T07:31:39;4.50;99.90
9410;DHT22;4744;52.576;13.568;2024-03-25T07:34:06;4.50;99.90
9410;DHT22;4744;52.576;13.568;2024-03-25T07:36:32;4.50;99.90
9410;DHT22;4744;52.576;13.568;2024-03-25T07:38:58;4.50;99.90
9410;DHT22;4744;52.576;13.568;2024-03-25T07:41:24;4.50;99.90
9410;DHT22;4744;52.576;13.568;2024-03-25T07:43:50;4.50;99.90
9410;DHT22;4744;52.576;13.568;2024-03-25T07:46:16;4.50;99.90
9410;DHT22;4744;52.576;13.568;2024-03-25T07:48:42;4.50;99.90
9410;DHT22;4744;52.576;13.568;2024-03-25T07:51:09;4.50;99.90
9410;DHT22;4744;52.576;13.568;2024-03-25T07:53:35;4.60;99.90
9410;DHT22;4744;52.576;13.568;2024-03-25T07:56:01;4.60;99.90
9410;DHT22;4744;52.576;13.568;2024-03-25T07:58:27;4.60;99.90
9410;DHT22;4744;52.576;13.568;2024-03-25T08:00:53;4.70;99.90
9410;DHT22;4744;52.576;13.568;2024-03-25T08:03:19;4.70;99.90
9410;DHT22;4744;52.576;13.568;2024-03-25T08:05:45;4.70;99.90
9410;DHT22;4744;52.576;13.568;2024-03-25T08:08:12;4.70;99.90
9410;DHT22;4744;52.576;13.568;2024-03-25T08:10:38;4.70;99.90
9410;DHT22;4744;52.576;13.568;2024-03-25T08:13:04;4.70;99.90
9410;DHT22;4744;52.576;13.568;2024-03-25T08:15:30;4.70;99.90
9410;DHT22;4744;52.576;13.568;2024-03-25T08:17:56;4.70;99.90
9410;DHT22;4744;52.576;13.568;2024-03-25T08:20:22;4.70;99.90
9410;DHT22;4744;52.576;13.568;2024-03-25T08:22:48;4.70;99.90
9410;DHT22;4744;52.576;13.568;2024-03-25T08:25:16;4.70;99.90
9410;DHT22;4744;52.576;13.568;2024-03-25T08:27:42;4.70;99.90
9410;DHT22;4744;52.576;13.568;2024-03-25T08:30:09;4.70;99.90
9410;DHT22;4744;52.576;13.568;2024-03-25T08:32:35;4.70;99.90
9410;DHT22;4744;52.576;13.568;2024-03-25T08:35:01;4.80;99.90
9410;DHT22;4744;52.576;13.568;2024-03-25T08:37:27;4.80;99.90
9410;DHT22;4744;52.576;13.568;2024-03-25T08:39:53;4.90;99.90
9410;DHT22;4744;52.576;13.568;2024-03-25T08:42:21;4.90;99.90
9410;DHT22;4744;52.576;13.568;2024-03-25T08:44:47;5.00;99.90
9410;DHT22;4744;52.576;13.568;2024-03-25T08:47:13;5.00;99.90
9410;DHT22;4744;52.576;13.568;2024-03-25T08:49:39;5.00;99.90
9410;DHT22;4744;52.576;13.568;2024-03-25T08:52:05;5.00;99.90
9410;DHT22;4744;52.576;13.568;2024-03-25T08:54:31;5.10;99.90
9410;DHT22;4744;52.576;13.568;2024-03-25T08:56:57;5.20;99.90
9410;DHT22;4744;52.576;13.568;2024-03-25T08:59:24;5.20;99.90
9410;DHT22;4744;52.576;13.568;2024-03-25T09:01:50;5.30;99.90
9410;DHT22;4744;52.576;13.568;2024-03-25T09:04:16;5.30;99.90
9410;DHT22;4744;52.576;13.568;2024-03-25T09:06:42;5.30;99.90
9410;DHT22;4744;52.576;13.568;2024-03-25T09:09:08;5.40;99.90
9410;DHT22;4744;52.576;13.568;2024-03-25T09:11:52;5.50;99.90
9410;DHT22;4744;52.576;13.568;2024-03-25T09:14:18;5.50;99.90
9410;DHT22;4744;52.576;13.568;2024-03-25T09:16:45;5.40;99.30
9410;DHT22;4744;52.576;13.568;2024-03-25T09:19:11;5.40;99.90
9410;DHT22;4744;52.576;13.568;2024-03-25T09:21:37;5.40;99.90
9410;DHT22;4744;52.576;13.568;2024-03-25T09:24:04;5.50;99.90
9410;DHT22;4744;52.576;13.568;2024-03-25T09:26:30;5.60;99.90
9410;DHT22;4744;52.576;13.568;2024-03-25T09:28:56;5.70;99.90
9410;DHT22;4744;52.576;13.568;2024-03-25T09:31:21;5.80;99.90
9410;DHT22;4744;52.576;13.568;2024-03-25T09:33:49;5.80;98.90
9410;DHT22;4744;52.576;13.568;2024-03-25T09:36:15;5.80;99.00
9410;DHT22;4744;52.576;13.568;2024-03-25T09:38:41;5.80;98.00
9410;DHT22;4744;52.576;13.568;2024-03-25T09:41:08;5.90;98.70
9410;DHT22;4744;52.576;13.568;2024-03-25T09:43:42;6.00;99.40
9410;DHT22;4744;52.576;13.568;2024-03-25T09:46:09;6.10;97.20
9410;DHT22;4744;52.576;13.568;2024-03-25T09:48:36;6.20;99.10
9410;DHT22;4744;52.576;13.568;2024-03-25T09:51:04;6.30;96.90
9410;DHT22;4744;52.576;13.568;2024-03-25T09:53:30;6.20;95.70
9410;DHT22;4744;52.576;13.568;2024-03-25T09:55:57;6.10;93.70
9410;DHT22;4744;52.576;13.568;2024-03-25T09:58:25;6.00;95.30
9410;DHT22;4744;52.576;13.568;2024-03-25T10:00:51;6.00;97.10
9410;DHT22;4744;52.576;13.568;2024-03-25T10:03:17;5.90;96.80
9410;DHT22;4744;52.576;13.568;2024-03-25T10:05:43;5.80;96.90
9410;DHT22;4744;52.576;13.568;2024-03-25T10:08:10;5.70;98.40
9410;DHT22;4744;52.576;13.568;2024-03-25T10:10:36;5.60;99.90
9410;DHT22;4744;52.576;13.568;2024-03-25T10:13:03;5.60;99.90
9410;DHT22;4744;52.576;13.568;2024-03-25T10:15:29;5.60;99.90
9410;DHT22;4744;52.576;13.568;2024-03-25T10:17:55;5.60;99.90
9410;DHT22;4744;52.576;13.568;2024-03-25T10:20:21;5.60;99.90
9410;DHT22;4744;52.576;13.568;2024-03-25T10:22:47;5.70;99.90
9410;DHT22;4744;52.576;13.568;2024-03-25T10:25:21;5.70;99.90
9410;DHT22;4744;52.576;13.568;2024-03-25T10:27:54;5.80;99.90
9410;DHT22;4744;52.576;13.568;2024-03-25T10:30:20;5.80;99.90
9410;DHT22;4744;52.576;13.568;2024-03-25T10:32:58;6.00;99.90
9410;DHT22;4744;52.576;13.568;2024-03-25T10:35:26;6.50;99.90
9410;DHT22;4744;52.576;13.568;2024-03-25T10:37:53;6.80;99.90
9410;DHT22;4744;52.576;13.568;2024-03-25T10:40:22;7.20;97.20
9410;DHT22;4744;52.576;13.568;2024-03-25T10:42:48;7.60;97.80
9410;DHT22;4744;52.576;13.568;2024-03-25T10:45:15;7.60;91.90
9410;DHT22;4744;52.576;13.568;2024-03-25T10:47:41;7.50;91.20
9410;DHT22;4744;52.576;13.568;2024-03-25T10:50:10;7.20;92.10
9410;DHT22;4744;52.576;13.568;2024-03-25T10:52:38;7.00;92.50
9410;DHT22;4744;52.576;13.568;2024-03-25T10:55:06;7.00;92.80
9410;DHT22;4744;52.576;13.568;2024-03-25T10:57:34;6.90;93.30
9410;DHT22;4744;52.576;13.568;2024-03-25T11:00:01;6.90;93.50
9410;DHT22;4744;52.576;13.568;2024-03-25T11:02:29;6.80;93.40
9410;DHT22;4744;52.576;13.568;2024-03-25T11:04:56;6.80;94.80
9410;DHT22;4744;52.576;13.568;2024-03-25T11:07:30;6.80;93.70
9410;DHT22;4744;52.576;13.568;2024-03-25T11:10:03;6.80;91.60
9410;DHT22;4744;52.576;13.568;2024-03-25T11:12:34;6.80;91.90
9410;DHT22;4744;52.576;13.568;2024-03-25T11:15:01;6.90;91.50
9410;DHT22;4744;52.576;13.568;2024-03-25T11:17:27;7.00;91.80
9410;DHT22;4744;52.576;13.568;2024-03-25T11:19:53;7.00;91.60
9410;DHT22;4744;52.576;13.568;2024-03-25T11:22:24;7.20;91.70
9410;DHT22;4744;52.576;13.568;2024-03-25T11:24:50;7.20;88.70
9410;DHT22;4744;52.576;13.568;2024-03-25T11:27:21;7.20;86.20
9410;DHT22;4744;52.576;13.568;2024-03-25T11:29:49;7.00;85.00
9410;DHT22;4744;52.576;13.568;2024-03-25T11:32:15;7.00;87.80
9410;DHT22;4744;52.576;13.568;2024-03-25T11:34:50;6.70;88.20
9410;DHT22;4744;52.576;13.568;2024-03-25T11:37:16;6.60;89.10
9410;DHT22;4744;52.576;13.568;2024-03-25T11:39:42;6.50;91.60
9410;DHT22;4744;52.576;13.568;2024-03-25T11:42:08;6.50;91.80
9410;DHT22;4744;52.576;13.568;2024-03-25T11:44:36;6.50;91.90
9410;DHT22;4744;52.576;13.568;2024-03-25T11:47:04;6.60;92.00
9410;DHT22;4744;52.576;13.568;2024-03-25T11:49:31;6.70;91.80
9410;DHT22;4744;52.576;13.568;2024-03-25T11:51:59;6.80;91.00
9410;DHT22;4744;52.576;13.568;2024-03-25T11:54:27;6.80;92.00
9410;DHT22;4744;52.576;13.568;2024-03-25T11:56:53;6.90;88.80
9410;DHT22;4744;52.576;13.568;2024-03-25T11:59:19;7.00;88.00
9410;DHT22;4744;52.576;13.568;2024-03-25T12:01:45;7.00;89.90
9410;DHT22;4744;52.576;13.568;2024-03-25T12:04:17;7.00;91.50
9410;DHT22;4744;52.576;13.568;2024-03-25T12:06:43;7.00;90.50
9410;DHT22;4744;52.576;13.568;2024-03-25T12:09:10;7.00;91.70
9410;DHT22;4744;52.576;13.568;2024-03-25T12:11:55;7.00;91.90
9410;DHT22;4744;52.576;13.568;2024-03-25T12:14:21;7.00;92.70
9410;DHT22;4744;52.576;13.568;2024-03-25T12:16:47;7.10;92.20
9410;DHT22;4744;52.576;13.568;2024-03-25T12:19:15;7.20;90.70
9410;DHT22;4744;52.576;13.568;2024-03-25T12:21:41;7.30;90.60
9410;DHT22;4744;52.576;13.568;2024-03-25T12:24:07;7.40;90.40
9410;DHT22;4744;52.576;13.568;2024-03-25T12:26:34;7.40;90.90
9410;DHT22;4744;52.576;13.568;2024-03-25T12:29:00;7.50;90.10
9410;DHT22;4744;52.576;13.568;2024-03-25T12:31:26;7.50;89.80
9410;DHT22;4744;52.576;13.568;2024-03-25T12:33:52;7.50;86.70
9410;DHT22;4744;52.576;13.568;2024-03-25T12:36:20;7.40;86.40
9410;DHT22;4744;52.576;13.568;2024-03-25T12:38:54;7.40;87.60
9410;DHT22;4744;52.576;13.568;2024-03-25T12:41:22;7.30;88.10
9410;DHT22;4744;52.576;13.568;2024-03-25T12:43:50;7.40;87.00
9410;DHT22;4744;52.576;13.568;2024-03-25T12:46:16;7.50;84.90
9410;DHT22;4744;52.576;13.568;2024-03-25T12:48:42;7.50;84.00
9410;DHT22;4744;52.576;13.568;2024-03-25T12:51:12;7.50;82.00
9410;DHT22;4744;52.576;13.568;2024-03-25T12:53:40;7.50;80.10
9410;DHT22;4744;52.576;13.568;2024-03-25T12:56:06;7.50;77.50
9410;DHT22;4744;52.576;13.568;2024-03-25T12:58:33;7.60;78.30
9410;DHT22;4744;52.576;13.568;2024-03-25T13:00:59;7.70;80.40
9410;DHT22;4744;52.576;13.568;2024-03-25T13:03:25;7.90;79.50
9410;DHT22;4744;52.576;13.568;2024-03-25T13:05:51;8.10;77.80
9410;DHT22;4744;52.576;13.568;2024-03-25T13:08:17;8.20;76.00
9410;DHT22;4744;52.576;13.568;2024-03-25T13:10:44;8.20;75.90
9410;DHT22;4744;52.576;13.568;2024-03-25T13:13:10;8.20;76.20
9410;DHT22;4744;52.576;13.568;2024-03-25T13:15:36;8.10;76.40
9410;DHT22;4744;52.576;13.568;2024-03-25T13:18:02;8.10;77.40
9410;DHT22;4744;52.576;13.568;2024-03-25T13:20:28;8.10;77.00
9410;DHT22;4744;52.576;13.568;2024-03-25T13:22:54;8.10;75.40
9410;DHT22;4744;52.576;13.568;2024-03-25T13:25:21;8.10;75.50
9410;DHT22;4744;52.576;13.568;2024-03-25T13:27:48;8.10;75.80
9410;DHT22;4744;52.576;13.568;2024-03-25T13:30:14;8.10;75.10
9410;DHT22;4744;52.576;13.568;2024-03-25T13:32:40;8.20;72.60
9410;DHT22;4744;52.576;13.568;2024-03-25T13:35:06;8.10;73.00
9410;DHT22;4744;52.576;13.568;2024-03-25T13:37:32;8.10;73.80
9410;DHT22;4744;52.576;13.568;2024-03-25T13:39:58;8.00;73.70
9410;DHT22;4744;52.576;13.568;2024-03-25T13:42:24;8.00;74.80
9410;DHT22;4744;52.576;13.568;2024-03-25T13:44:52;8.00;75.40
9410;DHT22;4744;52.576;13.568;2024-03-25T13:47:18;8.00;75.50
9410;DHT22;4744;52.576;13.568;2024-03-25T13:49:43;7.90;76.20
9410;DHT22;4744;52.576;13.568;2024-03-25T13:52:09;7.80;75.20
9410;DHT22;4744;52.576;13.568;2024-03-25T13:54:35;7.80;73.70
9410;DHT22;4744;52.576;13.568;2024-03-25T13:57:02;7.80;75.10
9410;DHT22;4744;52.576;13.568;2024-03-25T13:59:28;7.80;73.40
9410;DHT22;4744;52.576;13.568;2024-03-25T14:01:55;7.80;73.90
9410;DHT22;4744;52.576;13.568;2024-03-25T14:04:21;7.90;73.40
9410;DHT22;4744;52.576;13.568;2024-03-25T14:06:47;8.00;74.10
9410;DHT22;4744;52.576;13.568;2024-03-25T14:09:23;8.00;74.80
9410;DHT22;4744;52.576;13.568;2024-03-25T14:11:50;8.10;73.80
9410;DHT22;4744;52.576;13.568;2024-03-25T14:14:16;8.10;74.70
9410;DHT22;4744;52.576;13.568;2024-03-25T14:16:42;8.20;75.30
9410;DHT22;4744;52.576;13.568;2024-03-25T14:19:09;8.20;69.80
9410;DHT22;4744;52.576;13.568;2024-03-25T14:21:35;8.20;69.10
9410;DHT22;4744;52.576;13.568;2024-03-25T14:24:01;8.20;71.80
9410;DHT22;4744;52.576;13.568;2024-03-25T14:26:27;8.30;69.70
9410;DHT22;4744;52.576;13.568;2024-03-25T14:28:53;8.40;72.50
9410;DHT22;4744;52.576;13.568;2024-03-25T14:31:19;8.60;71.20
9410;DHT22;4744;52.576;13.568;2024-03-25T14:33:45;8.80;71.20
9410;DHT22;4744;52.576;13.568;2024-03-25T14:36:12;8.80;69.00
9410;DHT22;4744;52.576;13.568;2024-03-25T14:38:38;8.80;69.10
9410;DHT22;4744;52.576;13.568;2024-03-25T14:41:04;8.60;69.90
9410;DHT22;4744;52.576;13.568;2024-03-25T14:43:30;8.60;69.60
9410;DHT22;4744;52.576;13.568;2024-03-25T14:45:56;8.50;69.40
9410;DHT22;4744;52.576;13.568;2024-03-25T14:48:22;8.40;69.80
9410;DHT22;4744;52.576;13.568;2024-03-25T14:50:48;8.30;70.30
9410;DHT22;4744;52.576;13.568;2024-03-25T14:53:15;8.30;70.40
9410;DHT22;4744;52.576;13.568;2024-03-25T14:55:41;8.20;70.80
9410;DHT22;4744;52.576;13.568;2024-03-25T14:58:07;8.30;72.00
9410;DHT22;4744;52.576;13.568;2024-03-25T15:00:33;8.30;73.10
9410;DHT22;4744;52.576;13.568;2024-03-25T15:02:59;8.40;72.70
9410;DHT22;4744;52.576;13.568;2024-03-25T15:05:25;8.50;73.30
9410;DHT22;4744;52.576;13.568;2024-03-25T15:07:51;8.40;71.70
9410;DHT22;4744;52.576;13.568;2024-03-25T15:10:18;8.40;72.30
9410;DHT22;4744;52.576;13.568;2024-03-25T15:12:45;8.40;71.20
9410;DHT22;4744;52.576;13.568;2024-03-25T15:15:11;8.40;71.00
9410;DHT22;4744;52.576;13.568;2024-03-25T15:17:37;8.40;69.90
9410;DHT22;4744;52.576;13.568;2024-03-25T15:20:04;8.50;69.40
9410;DHT22;4744;52.576;13.568;2024-03-25T15:22:31;8.60;66.50
9410;DHT22;4744;52.576;13.568;2024-03-25T15:24:57;8.50;66.90
9410;DHT22;4744;52.576;13.568;2024-03-25T15:27:24;8.50;67.50
9410;DHT22;4744;52.576;13.568;2024-03-25T15:29:50;8.40;69.20
9410;DHT22;4744;52.576;13.568;2024-03-25T15:32:16;8.30;71.10
9410;DHT22;4744;52.576;13.568;2024-03-25T15:34:42;8.30;72.30
9410;DHT22;4744;52.576;13.568;2024-03-25T15:37:08;8.40;72.10
9410;DHT22;4744;52.576;13.568;2024-03-25T15:39:34;8.40;72.60
9410;DHT22;4744;52.576;13.568;2024-03-25T15:42:00;8.30;71.80
9410;DHT22;4744;52.576;13.568;2024-03-25T15:44:27;8.30;73.40
9410;DHT22;4744;52.576;13.568;2024-03-25T15:46:53;8.30;73.80
9410;DHT22;4744;52.576;13.568;2024-03-25T15:49:19;8.30;73.80
9410;DHT22;4744;52.576;13.568;2024-03-25T15:51:45;8.20;73.70
9410;DHT22;4744;52.576;13.568;2024-03-25T15:54:11;8.10;74.20
9410;DHT22;4744;52.576;13.568;2024-03-25T15:56:37;7.90;74.30
9410;DHT22;4744;52.576;13.568;2024-03-25T15:59:03;7.70;74.80